createdAt,value
2023-05-05T19:16:24.544Z,49.03
2023-05-05T19:17:24.592Z,46.95
2023-05-05T19:18:24.540Z,46.88
2023-05-05T19:19:24.502Z,45.74
2023-05-05T19:20:24.527Z,45.22
2023-05-05T19:21:24.512Z,48.35
2023-05-05T19:22:24.538Z,44.69
2023-05-05T19:23:24.469Z,46.62
2023-05-05T19:24:24.489Z,45.66
2023-05-05T19:25:24.469Z,46.44
2023-05-05T19:26:24.473Z,46.78
2023-05-05T19:27:24.484Z,44.35
2023-05-05T19:28:24.440Z,45.37
2023-05-05T19:29:24.454Z,47.19
2023-05-05T19:30:24.459Z,46.33
2023-05-05T19:31:24.579Z,44.31
2023-05-05T19:32:24.467Z,46.05
2023-05-05T19:33:24.453Z,46.43
2023-05-05T19:34:24.404Z,44.86
2023-05-05T19:35:24.411Z,45.47
2023-05-05T19:36:24.397Z,45.41
2023-05-05T19:37:24.439Z,47.16
2023-05-05T19:38:24.416Z,48.83
2023-05-05T19:39:24.349Z,47.84
2023-05-05T19:40:24.383Z,47.87
2023-05-05T19:41:24.365Z,45.95
2023-05-05T19:42:24.337Z,47.07
2023-05-05T19:43:24.384Z,45.19
2023-05-05T19:44:24.896Z,44.77
2023-05-05T19:45:24.324Z,45.16
2023-05-05T19:46:24.462Z,45.18
2023-05-05T19:47:24.455Z,45.14
2023-05-05T19:48:24.839Z,44.26
2023-05-05T19:49:24.317Z,46.45
2023-05-05T19:50:24.342Z,44.92
2023-05-05T19:51:24.318Z,44.16
2023-05-05T19:52:24.264Z,50.16
2023-05-05T19:53:24.299Z,52.45
2023-05-05T19:54:24.856Z,50.78
2023-05-05T19:55:28.986Z,49.23
2023-05-05T19:56:25.380Z,54.33
2023-05-05T19:57:24.927Z,55.50
2023-05-05T19:58:24.794Z,55.52
2023-05-05T19:59:24.237Z,55.11
2023-05-05T20:00:24.213Z,53.39
2023-05-05T20:01:24.293Z,53.53
2023-05-05T20:02:24.324Z,53.68
2023-05-05T20:03:24.338Z,55.01
2023-05-05T20:04:24.248Z,56.74
2023-05-05T20:05:24.200Z,58.70
2023-05-05T20:06:24.202Z,59.99
2023-05-05T20:07:24.155Z,59.20
2023-05-05T20:08:24.225Z,55.97
2023-05-05T20:09:24.202Z,57.71
2023-05-05T20:10:24.253Z,58.30
2023-05-05T20:11:24.160Z,57.18
2023-05-05T20:12:24.193Z,57.72
2023-05-05T20:13:24.192Z,58.58
2023-05-05T20:14:24.142Z,59.04
2023-05-05T20:15:24.160Z,57.67
2023-05-05T20:16:24.298Z,59.49
2023-05-05T20:17:24.137Z,57.59
2023-05-05T20:18:24.190Z,55.58
2023-05-05T20:19:24.150Z,55.43
2023-05-05T20:20:24.105Z,55.86
2023-05-05T20:21:24.106Z,55.35
2023-05-05T20:22:24.107Z,57.35
2023-05-05T20:23:24.171Z,56.40
2023-05-05T20:24:24.089Z,54.82
2023-05-05T20:25:24.212Z,54.10
2023-05-05T20:26:24.047Z,50.17
2023-05-05T20:27:25.895Z,50.40
2023-05-05T20:28:24.091Z,54.46
2023-05-05T20:29:24.033Z,55.43
2023-05-05T20:30:24.007Z,53.53
2023-05-05T20:31:24.049Z,52.42
2023-05-05T20:32:24.041Z,50.64
2023-05-05T20:33:23.977Z,50.41
2023-05-05T20:34:24.019Z,48.44
2023-05-05T20:35:24.072Z,48.83
2023-05-05T20:36:23.956Z,45.40
2023-05-05T20:37:23.997Z,45.66
2023-05-05T20:38:23.965Z,46.17
2023-05-05T20:39:23.948Z,45.89
2023-05-05T20:40:23.943Z,46.24
2023-05-05T20:41:23.944Z,46.96
2023-05-05T20:42:23.969Z,45.10
2023-05-05T20:43:23.956Z,43.64
2023-05-05T20:44:23.918Z,44.40
2023-05-05T20:45:23.923Z,46.82
2023-05-05T20:46:23.962Z,42.79
2023-05-05T20:47:23.998Z,43.84
2023-05-05T20:48:23.930Z,43.01
2023-05-05T20:49:23.929Z,42.75
2023-05-05T20:50:23.916Z,42.58
2023-05-05T20:51:23.974Z,43.11
2023-05-05T20:52:23.935Z,42.72
2023-05-05T20:53:23.861Z,42.14
2023-05-05T20:54:23.843Z,42.73
2023-05-05T20:55:23.909Z,42.39
2023-05-05T20:56:23.942Z,42.57
2023-05-05T20:57:23.849Z,42.84
2023-05-05T20:58:23.898Z,42.82
2023-05-05T20:59:23.841Z,42.68
2023-05-05T21:00:23.872Z,41.85
2023-05-05T21:01:23.881Z,42.27
2023-05-05T21:02:23.883Z,42.09
2023-05-05T21:03:23.812Z,42.79
2023-05-05T21:04:23.789Z,44.02
2023-05-05T21:05:23.807Z,43.79
2023-05-05T21:06:23.791Z,43.39
2023-05-05T21:07:23.824Z,42.55
2023-05-05T21:08:23.783Z,43.30
2023-05-05T21:09:23.796Z,42.79
2023-05-05T21:10:23.804Z,42.66
2023-05-05T21:11:23.737Z,42.80
2023-05-05T21:12:23.836Z,42.01
2023-05-05T21:13:23.782Z,42.76
2023-05-05T21:14:23.796Z,42.30
2023-05-05T21:15:23.774Z,42.89
2023-05-05T21:16:23.790Z,42.50
2023-05-05T21:17:23.733Z,41.91
2023-05-05T21:18:23.682Z,41.74
2023-05-05T21:19:23.687Z,43.72
2023-05-05T21:20:23.665Z,41.95
2023-05-05T21:21:23.653Z,41.44
2023-05-05T21:22:23.670Z,43.43
2023-05-05T21:23:23.723Z,42.22
2023-05-05T21:24:23.658Z,43.34
2023-05-05T21:25:23.645Z,43.45
2023-05-05T21:26:23.713Z,42.35
2023-05-05T21:27:23.630Z,42.15
2023-05-05T21:28:23.683Z,42.58
2023-05-05T21:29:23.585Z,43.79
2023-05-05T21:30:23.642Z,43.33
2023-05-05T21:31:23.587Z,42.80
2023-05-05T21:32:23.831Z,42.79
2023-05-05T21:33:23.635Z,42.98
2023-05-05T21:34:24.618Z,43.43
2023-05-05T21:35:23.626Z,45.56
2023-05-05T21:36:23.599Z,44.25
2023-05-05T21:37:23.591Z,45.96
2023-05-05T21:38:23.561Z,43.45
2023-05-05T21:39:23.600Z,45.53
2023-05-05T21:40:23.578Z,45.77
2023-05-05T21:41:23.563Z,45.12
2023-05-05T21:42:23.545Z,46.03
2023-05-05T21:43:23.494Z,47.46
2023-05-05T21:44:23.569Z,45.13
2023-05-05T21:45:23.544Z,42.50
2023-05-05T21:46:23.616Z,43.08
2023-05-05T21:47:23.596Z,44.10
2023-05-05T21:48:23.475Z,44.75
2023-05-05T21:49:23.515Z,45.23
2023-05-05T21:50:23.488Z,43.30
2023-05-05T21:51:23.465Z,42.92
2023-05-05T21:52:23.425Z,43.12
2023-05-05T21:53:23.469Z,44.45
2023-05-05T21:54:23.447Z,44.20
2023-05-05T21:55:23.405Z,42.56
2023-05-05T21:56:23.447Z,42.98
2023-05-05T21:57:23.459Z,42.04
2023-05-05T21:58:23.390Z,42.61
2023-05-05T21:59:23.387Z,42.02
2023-05-05T22:00:23.417Z,41.50
2023-05-05T22:01:23.467Z,40.54
2023-05-05T22:02:23.477Z,41.77
2023-05-05T22:03:23.470Z,44.04
2023-05-05T22:04:23.357Z,44.42
2023-05-05T22:05:23.376Z,44.91
2023-05-05T22:06:23.391Z,46.20
2023-05-05T22:07:23.343Z,45.24
2023-05-05T22:08:23.322Z,45.77
2023-05-05T22:09:23.303Z,45.08
2023-05-05T22:10:23.323Z,44.00
2023-05-05T22:11:23.296Z,42.33
2023-05-05T22:12:23.403Z,45.27
2023-05-05T22:13:23.485Z,45.13
2023-05-05T22:14:23.274Z,45.20
2023-05-05T22:15:25.374Z,44.78
2023-05-05T22:16:23.421Z,42.83
2023-05-05T22:17:23.259Z,43.85
2023-05-05T22:18:23.252Z,43.45
2023-05-05T22:19:23.283Z,45.01
2023-05-05T22:20:23.294Z,45.45
2023-05-05T22:21:23.240Z,46.57
2023-05-05T22:22:23.233Z,46.68
2023-05-05T22:23:23.199Z,48.27
2023-05-05T22:24:23.224Z,46.37
2023-05-05T22:25:23.256Z,45.71
2023-05-05T22:26:23.235Z,46.85
2023-05-05T22:27:23.174Z,45.03
2023-05-05T22:28:23.195Z,45.34
2023-05-05T22:29:23.170Z,44.46
2023-05-05T22:30:23.183Z,45.98
2023-05-05T22:31:23.217Z,44.88
2023-05-05T22:32:23.183Z,45.87
2023-05-05T22:33:23.158Z,47.20
2023-05-05T22:34:23.140Z,47.46
2023-05-05T22:35:23.170Z,46.52
2023-05-05T22:36:23.122Z,48.27
2023-05-05T22:37:23.119Z,45.92
2023-05-05T22:38:23.156Z,43.47
2023-05-05T22:39:23.103Z,44.31
2023-05-05T22:40:23.096Z,45.51
2023-05-05T22:41:23.101Z,46.88
2023-05-05T22:42:23.099Z,46.67
2023-05-05T22:43:23.099Z,44.45
2023-05-05T22:44:23.052Z,43.60
2023-05-05T22:45:23.104Z,44.73
2023-05-05T22:46:23.100Z,45.45
2023-05-05T22:47:23.110Z,44.27
2023-05-05T22:48:23.040Z,44.31
2023-05-05T22:49:23.119Z,44.38
2023-05-05T22:50:22.995Z,43.91
2023-05-05T22:51:23.029Z,44.41
2023-05-05T22:52:23.053Z,44.55
2023-05-05T22:53:23.005Z,45.62
2023-05-05T22:54:23.012Z,45.69
2023-05-05T22:55:22.960Z,45.02
2023-05-05T22:56:22.994Z,46.68
2023-05-05T22:57:22.993Z,48.25
2023-05-05T22:58:22.922Z,47.47
2023-05-05T22:59:23.038Z,46.30
2023-05-05T23:00:22.953Z,44.91
2023-05-05T23:01:23.098Z,43.91
2023-05-05T23:02:22.965Z,45.22
2023-05-05T23:03:22.974Z,45.81
2023-05-05T23:04:22.927Z,44.43
2023-05-05T23:05:22.883Z,45.39
2023-05-05T23:06:22.965Z,45.73
2023-05-05T23:07:22.912Z,48.18
2023-05-05T23:08:22.855Z,44.45
2023-05-05T23:09:22.851Z,43.55
2023-05-05T23:10:22.874Z,46.48
2023-05-05T23:11:22.903Z,44.56
2023-05-05T23:12:22.854Z,44.66
2023-05-05T23:13:23.883Z,46.33
2023-05-05T23:14:22.821Z,44.76
2023-05-05T23:15:22.869Z,45.14
2023-05-05T23:16:22.896Z,45.01
2023-05-05T23:17:22.851Z,43.86
2023-05-05T23:18:22.813Z,47.83
2023-05-05T23:19:22.790Z,45.69
2023-05-05T23:20:22.779Z,45.23
2023-05-05T23:21:22.791Z,43.97
2023-05-05T23:22:22.803Z,44.21
2023-05-05T23:23:22.801Z,44.03
2023-05-05T23:24:22.789Z,46.04
2023-05-05T23:25:22.755Z,45.95
2023-05-05T23:26:22.805Z,48.21
2023-05-05T23:27:22.744Z,45.92
2023-05-05T23:28:22.756Z,45.59
2023-05-05T23:29:22.753Z,46.08
2023-05-05T23:30:22.746Z,45.16
2023-05-05T23:31:22.841Z,47.62
2023-05-05T23:32:22.684Z,46.37
2023-05-05T23:33:22.702Z,47.16
2023-05-05T23:34:22.695Z,45.56
2023-05-05T23:35:22.695Z,44.76
2023-05-05T23:36:22.676Z,48.29
2023-05-05T23:37:22.662Z,45.89
2023-05-05T23:38:22.691Z,44.93
2023-05-05T23:39:22.680Z,45.26
2023-05-05T23:40:22.662Z,45.86
2023-05-05T23:41:22.628Z,43.99
2023-05-05T23:42:22.625Z,44.42
2023-05-05T23:43:23.614Z,47.27
2023-05-05T23:44:22.625Z,47.16
2023-05-05T23:45:22.645Z,43.62
2023-05-05T23:46:22.683Z,44.54
2023-05-05T23:47:22.588Z,44.67
2023-05-05T23:48:22.666Z,47.09
2023-05-05T23:49:22.630Z,44.83
2023-05-05T23:50:23.587Z,45.47
2023-05-05T23:51:22.580Z,43.37
2023-05-05T23:52:22.563Z,43.11
2023-05-05T23:53:22.586Z,44.27
2023-05-05T23:54:22.531Z,44.32
2023-05-05T23:55:22.543Z,43.84
2023-05-05T23:56:22.499Z,43.46
2023-05-05T23:57:22.541Z,46.00
2023-05-05T23:58:22.496Z,47.13
2023-05-05T23:59:22.469Z,48.96
